| time (UTC) | temp C | wind direction | speed KPH | gust KPH | rain 1hr cm | rain 24hr cm | rain mn cm | humidity % | barometer mb |
| 20260906083020 | 20 | 0.0 | 0.0 | 0.00 | 0.00 | 0.00 | 1 | 1011.4 | |
| 20260906082020 | 20 | 0.0 | 1.6 | 0.00 | 0.00 | 0.00 | 1 | 1011.4 | |
| 20260906081020 | 20 | 68 | 3.2 | 4.8 | 0.00 | 0.00 | 0.00 | 1 | 1011.4 |
| 20260906080019 | 21 | 0.0 | 0.0 | 0.00 | 0.00 | 0.00 | 1 | 1011.3 | |
| 20260906075019 | 21 | 0.0 | 0.0 | 0.00 | 0.00 | 0.00 | 1 | 1011.2 | |
| 20260906074040 | 21 | 68 | 3.2 | 4.8 | 0.00 | 0.00 | 0.00 | 1 | 1011.0 |
| 20260906073020 | 20 | 68 | 1.6 | 1.6 | 0.00 | 0.00 | 0.00 | 1 | 1010.9 |
| 20260906072019 | 20 | 0.0 | 0.0 | 0.00 | 0.00 | 0.00 | 1 | 1011.0 | |
| 20260906071020 | 20 | 68 | 1.6 | 3.2 | 0.00 | 0.00 | 0.00 | 1 | 1011.1 |
| 20260906070020 | 20 | 0.0 | 0.0 | 0.00 | 0.00 | 0.00 | 1 | 1011.3 | |
| 20260906065020 | 20 | 0.0 | 1.6 | 0.00 | 0.00 | 0.00 | 1 | 1011.5 | |
| 20260906064020 | 21 | 0.0 | 1.6 | 0.00 | 0.00 | 0.00 | 1 | 1011.7 | |
| 20260906063019 | 21 | 0.0 | 0.0 | 0.00 | 0.00 | 0.00 | 1 | 1011.9 | |
| 20260906062020 | 21 | 0.0 | 0.0 | 0.00 | 0.00 | 0.00 | 1 | 1011.9 | |
| 20260906061019 | 21 | 0.0 | 0.0 | 0.00 | 0.00 | 0.00 | 1 | 1011.9 | |
| 20260906060019 | 21 | 68 | 1.6 | 1.6 | 0.00 | 0.00 | 0.00 | 1 | 1012.0 |
| 20260906055019 | 21 | 68 | 1.6 | 3.2 | 0.00 | 0.00 | 0.00 | 1 | 1011.9 |
| 20260906054019 | 21 | 0.0 | 0.0 | 0.00 | 0.00 | 0.00 | 1 | 1012.0 | |
| 20260906053039 | 21 | 0.0 | 0.0 | 0.00 | 0.00 | 0.00 | 1 | 1012.0 | |
| 20260906052020 | 21 | 68 | 1.6 | 3.2 | 0.00 | 0.00 | 0.00 | 1 | 1012.0 |
| 20260906051019 | 21 | 68 | 1.6 | 3.2 | 0.00 | 0.00 | 0.00 | 1 | 1012.0 |
| 20260906050019 | 21 | 0.0 | 0.0 | 0.00 | 0.00 | 0.00 | 1 | 1011.9 | |
| 20260906045019 | 21 | 0.0 | 0.0 | 0.00 | 0.00 | 0.00 | 1 | 1012.2 | |
| 20260906044019 | 21 | 0.0 | 0.0 | 0.00 | 0.00 | 0.00 | 1 | 1011.8 | |
| 20260906043019 | 21 | 68 | 1.6 | 3.2 | 0.00 | 0.00 | 0.00 | 1 | 1011.9 |
| 20260906042039 | 21 | 68 | 1.6 | 3.2 | 0.00 | 0.00 | 0.00 | 1 | 1011.9 |
| 20260906041019 | 21 | 68 | 1.6 | 3.2 | 0.00 | 0.00 | 0.00 | 1 | 1011.9 |
| 20260906040019 | 22 | 0.0 | 3.2 | 0.00 | 0.00 | 0.00 | 1 | 1012.2 | |
| 20260906035021 | 21 | 0.0 | 1.6 | 0.00 | 0.00 | 0.00 | 1 | 1012.4 | |
| 20260906034021 | 21 | 68 | 1.6 | 3.2 | 0.00 | 0.00 | 0.00 | 1 | 1012.5 |
| 20260906033020 | 22 | 68 | 1.6 | 4.8 | 0.00 | 0.00 | 0.00 | 1 | 1012.3 |
| 20260906032021 | 22 | 0.0 | 1.6 | 0.00 | 0.00 | 0.00 | 1 | 1012.3 | |
| 20260906031020 | 22 | 68 | 1.6 | 3.2 | 0.00 | 0.00 | 0.00 | 1 | 1012.3 |
| 20260906030020 | 22 | 68 | 1.6 | 3.2 | 0.00 | 0.00 | 0.00 | 1 | 1012.2 |
| 20260906025020 | 22 | 68 | 1.6 | 1.6 | 0.00 | 0.00 | 0.00 | 1 | 1012.1 |
| 20260906024020 | 22 | 0.0 | 1.6 | 0.00 | 0.00 | 0.00 | 1 | 1012.0 | |
| 20260906023020 | 22 | 0.0 | 0.0 | 0.00 | 0.00 | 0.00 | 1 | 1012.0 | |
| 20260906022040 | 22 | 0.0 | 0.0 | 0.00 | 0.00 | 0.00 | 1 | 1012.1 | |
| 20260906021020 | 22 | 68 | 1.6 | 3.2 | 0.00 | 0.00 | 0.00 | 1 | 1012.3 |
| 20260906020020 | 22 | 68 | 1.6 | 3.2 | 0.00 | 0.00 | 0.00 | 1 | 1012.1 |
| 20260906015020 | 22 | 0.0 | 1.6 | 0.00 | 0.00 | 0.00 | 1 | 1012.0 | |
| 20260906014020 | 22 | 68 | 3.2 | 6.4 | 0.00 | 0.00 | 0.00 | 1 | 1011.8 |
| 20260906013020 | 22 | 158 | 1.6 | 4.8 | 0.00 | 0.00 | 0.00 | 1 | 1011.7 |
| 20260906012022 | 23 | 158 | 1.6 | 4.8 | 0.00 | 0.00 | 0.00 | 1 | 1011.2 |
| 20260906011020 | 23 | 0.0 | 1.6 | 0.00 | 0.00 | 0.00 | 1 | 1011.0 | |
| 20260906010020 | 23 | 0.0 | 1.6 | 0.00 | 0.00 | 0.00 | 1 | 1011.0 | |
| 20260906005020 | 23 | 158 | 1.6 | 4.8 | 0.00 | 0.00 | 0.00 | 1 | 1010.9 |
| 20260906004020 | 23 | 158 | 1.6 | 4.8 | 0.00 | 0.00 | 0.00 | 1 | 1010.9 |
| 20260906003020 | 24 | 0.0 | 1.6 | 0.00 | 0.00 | 0.00 | 1 | 1010.9 | |
| 20260906002020 | 25 | 0.0 | 1.6 | 0.00 | 0.00 | 0.00 | 1 | 1010.7 | |
| 20260906001040 | 25 | 0.0 | 4.8 | 0.00 | 0.00 | 0.00 | 1 | 1010.7 | |
| 20260906000020 | 26 | 158 | 4.8 | 6.4 | 0.00 | 0.00 | 0.00 | 1 | 1010.6 |
| 20260905235040 | 26 | 158 | 1.6 | 4.8 | 0.00 | 0.00 | 0.00 | 1 | 1010.5 |
| 20260905234100 | 27 | 158 | 1.6 | 1.6 | 0.00 | 0.00 | 0.00 | 5 | 1010.6 |
| 20260905233020 | 27 | 158 | 1.6 | 4.8 | 0.00 | 0.00 | 0.00 | 16 | 1010.7 |
| 20260905232020 | 28 | 158 | 1.6 | 1.6 | 0.00 | 0.00 | 0.00 | 15 | 1010.7 |
| 20260905231040 | 28 | 0.0 | 1.6 | 0.00 | 0.00 | 0.00 | 28 | 1010.5 | |
| 20260905230020 | 29 | 158 | 3.2 | 4.8 | 0.00 | 0.00 | 0.00 | 43 | 1010.7 |
| 20260905225120 | 30 | 158 | 3.2 | 4.8 | 0.00 | 0.00 | 0.00 | 49 | 1010.9 |
| 20260905224020 | 31 | 158 | 1.6 | 6.4 | 0.00 | 0.00 | 0.00 | 55 | 1011.0 |
| 20260905223039 | 31 | 158 | 1.6 | 6.4 | 0.00 | 0.00 | 0.00 | 55 | 1011.1 |
| 20260905222020 | 31 | 180 | 3.2 | 8.0 | 0.00 | 0.00 | 0.00 | 55 | 1011.0 |
| 20260905221020 | 31 | 180 | 6.4 | 12.9 | 0.00 | 0.00 | 0.00 | 55 | 1011.0 |
| 20260905220213 | 31 | 158 | 4.8 | 8.0 | 0.00 | 0.00 | 0.00 | 55 | 1011.2 |
| 20260905215040 | 31 | 180 | 3.2 | 8.0 | 0.00 | 0.00 | 0.00 | 55 | 1011.3 |
| 20260905214020 | 31 | 180 | 4.8 | 8.0 | 0.00 | 0.00 | 0.00 | 55 | 1011.3 |
| 20260905213040 | 31 | 158 | 6.4 | 16.1 | 0.00 | 0.00 | 0.00 | 54 | 1011.4 |
| 20260905212020 | 31 | 270 | 3.2 | 8.0 | 0.00 | 0.00 | 0.00 | 55 | 1011.6 |
| 20260905211020 | 31 | 225 | 4.8 | 11.3 | 0.00 | 0.00 | 0.00 | 54 | 1011.5 |
| 20260905210020 | 31 | 180 | 4.8 | 9.7 | 0.00 | 0.00 | 0.00 | 55 | 1011.5 |
| 20260905205020 | 31 | 225 | 3.2 | 8.0 | 0.00 | 0.00 | 0.00 | 54 | 1011.6 |
| 20260905204020 | 31 | 158 | 1.6 | 6.4 | 0.00 | 0.00 | 0.00 | 54 | 1011.5 |
| 20260905203019 | 31 | 135 | 3.2 | 6.4 | 0.00 | 0.00 | 0.00 | 54 | 1011.6 |
| 20260905202019 | 30 | 158 | 3.2 | 8.0 | 0.00 | 0.00 | 0.00 | 55 | 1011.7 |
| 20260905201019 | 30 | 180 | 6.4 | 11.3 | 0.00 | 0.00 | 0.00 | 54 | 1011.9 |
| 20260905200019 | 30 | 180 | 4.8 | 9.7 | 0.00 | 0.00 | 0.00 | 54 | 1012.1 |
| 20260905195019 | 30 | 135 | 4.8 | 8.0 | 0.00 | 0.00 | 0.00 | 54 | 1012.2 |
| 20260905194019 | 30 | 113 | 4.8 | 11.3 | 0.00 | 0.00 | 0.00 | 53 | 1012.4 |
| 20260905193039 | 30 | 90 | 3.2 | 4.8 | 0.00 | 0.00 | 0.00 | 53 | 1012.5 |
| 20260905192019 | 30 | 135 | 3.2 | 6.4 | 0.00 | 0.00 | 0.00 | 54 | 1012.7 |
| 20260905191100 | 30 | 68 | 4.8 | 8.0 | 0.00 | 0.00 | 0.00 | 53 | 1012.8 |
| 20260905190039 | 30 | 68 | 8.0 | 16.1 | 0.00 | 0.00 | 0.00 | 50 | 1012.9 |
| 20260905185040 | 29 | 68 | 6.4 | 14.5 | 0.00 | 0.00 | 0.00 | 46 | 1012.9 |
| 20260905184019 | 28 | 113 | 8.0 | 17.7 | 0.00 | 0.00 | 0.00 | 50 | 1013.2 |
| 20260905183019 | 28 | 135 | 11.3 | 16.1 | 0.00 | 0.00 | 0.00 | 52 | 1013.2 |
| 20260905182039 | 29 | 68 | 8.0 | 17.7 | 0.00 | 0.00 | 0.00 | 50 | 1013.6 |
| 20260905181019 | 28 | 113 | 8.0 | 14.5 | 0.00 | 0.00 | 0.00 | 48 | 1013.9 |
| 20260905180059 | 28 | 113 | 8.0 | 16.1 | 0.00 | 0.00 | 0.00 | 49 | 1014.1 |
| 20260905175019 | 28 | 113 | 6.4 | 14.5 | 0.00 | 0.00 | 0.00 | 45 | 1014.1 |
| 20260905174019 | 27 | 113 | 8.0 | 12.9 | 0.00 | 0.00 | 0.00 | 26 | 1014.1 |
| 20260905173019 | 26 | 113 | 11.3 | 16.1 | 0.00 | 0.00 | 0.00 | 27 | 1014.5 |
| 20260905172019 | 26 | 135 | 8.0 | 16.1 | 0.00 | 0.00 | 0.00 | 18 | 1014.6 |
| 20260905171019 | 26 | 45 | 6.4 | 16.1 | 0.00 | 0.00 | 0.00 | 21 | 1014.8 |
| 20260905170059 | 25 | 68 | 8.0 | 19.3 | 0.00 | 0.00 | 0.00 | 1 | 1014.5 |
| 20260905165019 | 25 | 113 | 6.4 | 14.5 | 0.00 | 0.00 | 0.00 | 1 | 1014.5 |
| 20260905164019 | 25 | 68 | 8.0 | 17.7 | 0.00 | 0.00 | 0.00 | 8 | 1014.3 |
| 20260905163019 | 26 | 68 | 4.8 | 12.9 | 0.00 | 0.00 | 0.00 | 1 | 1014.1 |
| 20260905162019 | 26 | 338 | 9.7 | 20.9 | 0.00 | 0.00 | 0.00 | 1 | 1013.8 |
| 20260905161019 | 27 | 338 | 17.7 | 32.2 | 0.00 | 0.00 | 0.00 | 1 | 1014.3 |
| 20260905160019 | 29 | 293 | 9.7 | 20.9 | 0.00 | 0.00 | 0.00 | 1 | 1014.6 |
| 20260905155019 | 30 | 315 | 12.9 | 25.7 | 0.00 | 0.00 | 0.00 | 7 | 1014.6 |
| 20260905154019 | 30 | 293 | 3.2 | 9.7 | 0.00 | 0.00 | 0.00 | 1 | 1014.0 |
| 20260905153021 | 30 | 203 | 3.2 | 8.0 | 0.00 | 0.00 | 0.00 | 1 | 1014.1 |
| 20260905152019 | 29 | 180 | 1.6 | 6.4 | 0.00 | 0.00 | 0.00 | 1 | 1013.9 |
| 20260905151019 | 28 | 203 | 3.2 | 6.4 | 0.00 | 0.00 | 0.00 | 1 | 1013.6 |
| 20260905150021 | 28 | 203 | 3.2 | 6.4 | 0.00 | 0.00 | 0.00 | 1 | 1013.8 |
| 20260905145021 | 28 | 180 | 3.2 | 4.8 | 0.00 | 0.00 | 0.00 | 1 | 1013.8 |
| 20260905144019 | 27 | 180 | 1.6 | 4.8 | 0.00 | 0.00 | 0.00 | 1 | 1014.0 |
| 20260905143019 | 27 | 180 | 3.2 | 6.4 | 0.00 | 0.00 | 0.00 | 1 | 1014.0 |
| 20260905142021 | 27 | 180 | 3.2 | 6.4 | 0.00 | 0.00 | 0.00 | 1 | 1014.1 |
| 20260905141021 | 27 | 180 | 1.6 | 6.4 | 0.00 | 0.00 | 0.00 | 1 | 1014.2 |
| 20260905140020 | 26 | 158 | 1.6 | 3.2 | 0.00 | 0.00 | 0.00 | 1 | 1014.1 |
| 20260905135059 | 26 | 158 | 1.6 | 6.4 | 0.00 | 0.00 | 0.00 | 1 | 1014.1 |
| 20260905134041 | 25 | 158 | 1.6 | 3.2 | 0.00 | 0.00 | 0.00 | 1 | 1014.2 |
| 20260905133020 | 25 | 158 | 1.6 | 6.4 | 0.00 | 0.00 | 0.00 | 1 | 1014.1 |
| 20260905132020 | 24 | 158 | 3.2 | 8.0 | 0.00 | 0.00 | 0.00 | 1 | 1014.2 |
| 20260905131019 | 25 | 0 | 1.6 | 4.8 | 0.00 | 0.00 | 0.00 | 1 | 1014.4 |
| 20260905130019 | 24 | 338 | 1.6 | 4.8 | 0.00 | 0.00 | 0.00 | 1 | 1014.5 |
| 20260905125021 | 24 | 338 | 1.6 | 3.2 | 0.00 | 0.00 | 0.00 | 1 | 1014.8 |
| 20260905124040 | 23 | 338 | 1.6 | 4.8 | 0.00 | 0.00 | 0.00 | 1 | 1014.7 |
| 20260905123021 | 22 | 0.0 | 0.0 | 0.00 | 0.00 | 0.00 | 1 | 1014.7 | |
| 20260905122019 | 22 | 0.0 | 0.0 | 0.00 | 0.00 | 0.00 | 1 | 1014.6 | |
| 20260905121021 | 21 | 0.0 | 0.0 | 0.00 | 0.00 | 0.00 | 1 | 1014.5 | |
| 20260905120041 | 21 | 0.0 | 0.0 | 0.00 | 0.00 | 0.00 | 1 | 1014.3 | |
| 20260905115041 | 20 | 0.0 | 0.0 | 0.00 | 0.00 | 0.00 | 1 | 1014.1 | |
| 20260905114022 | 20 | 0.0 | 0.0 | 0.00 | 0.00 | 0.00 | 1 | 1014.0 | |
| 20260905113020 | 20 | 0.0 | 0.0 | 0.00 | 0.00 | 0.00 | 1 | 1013.8 | |
| 20260905112021 | 20 | 0.0 | 0.0 | 0.00 | 0.00 | 0.00 | 1 | 1013.9 | |
| 20260905111041 | 20 | 0.0 | 0.0 | 0.00 | 0.00 | 0.00 | 1 | 1013.9 | |
| 20260905110021 | 20 | 0.0 | 0.0 | 0.00 | 0.00 | 0.00 | 1 | 1013.7 | |
| 20260905105020 | 20 | 0.0 | 1.6 | 0.00 | 0.00 | 0.00 | 1 | 1013.7 | |
| 20260905104040 | 20 | 0.0 | 1.6 | 0.00 | 0.00 | 0.00 | 1 | 1013.6 | |
| 20260905103020 | 20 | 0.0 | 0.0 | 0.00 | 0.00 | 0.00 | 1 | 1013.6 | |
| 20260905102021 | 20 | 0.0 | 0.0 | 0.00 | 0.00 | 0.00 | 1 | 1013.5 | |
| 20260905101140 | 20 | 0.0 | 0.0 | 0.00 | 0.00 | 0.00 | 1 | 1013.5 | |
| 20260905100020 | 20 | 338 | 1.6 | 3.2 | 0.00 | 0.00 | 0.00 | 1 | 1013.6 |
| 20260905095020 | 21 | 338 | 1.6 | 3.2 | 0.00 | 0.00 | 0.00 | 1 | 1013.7 |
| 20260905094020 | 20 | 338 | 1.6 | 3.2 | 0.00 | 0.00 | 0.00 | 1 | 1013.4 |
| 20260905093101 | 20 | 0.0 | 0.0 | 0.00 | 0.00 | 0.00 | 1 | 1013.3 | |
| 20260905092100 | 20 | 0.0 | 3.2 | 0.00 | 0.00 | 0.00 | 1 | 1013.3 | |
| 20260905091020 | 20 | 0.0 | 0.0 | 0.00 | 0.00 | 0.00 | 1 | 1013.3 | |
| 20260905090020 | 20 | 0.0 | 0.0 | 0.00 | 0.00 | 0.00 | 1 | 1013.4 | |
| 20260905085021 | 20 | 0.0 | 0.0 | 0.00 | 0.00 | 0.00 | 1 | 1013.4 | |
| 20260905084020 | 21 | 0.0 | 1.6 | 0.00 | 0.00 | 0.00 | 1 | 1013.4 |